Time;durP1;ratioP1;P1;durP2;ratioP2;P2;SDS_P1;SDS_P2;PMS_P1;PMS_P2;Temp;Humidity;BMP_temperature;BMP_pressure;BME280_temperature;BME280_humidity;BME280_pressure;Samples;Min_cycle;Max_cycle;Signal;HPM_P1;HPM_P2
2022/10/27 00:00:47;;;;;;;10.38;1.80;;;14.50;99.90;;;-144.05;73.32;125687.94;4993726;28;20034;-84
2022/10/27 00:03:16;;;;;;;7.68;2.10;;;14.60;99.90;;;-144.05;73.32;125687.94;5010691;28;20022;-83
2022/10/27 00:05:44;;;;;;;10.90;2.53;;;14.60;99.90;;;-144.05;73.49;125687.94;5010750;28;20062;-83
2022/10/27 00:08:16;;;;;;;3.50;1.60;;;14.50;99.90;;;-144.05;73.50;125687.94;4992715;28;20046;-81
2022/10/27 00:10:43;;;;;;;4.95;1.77;;;14.60;99.90;;;-144.05;73.37;125687.94;4993439;28;20099;-84
2022/10/27 00:13:13;;;;;;;4.57;2.10;;;14.60;99.90;;;-144.05;73.50;125687.94;5008945;28;20405;-81
2022/10/27 00:15:40;;;;;;;7.38;2.75;;;14.60;99.90;;;-144.05;73.46;125687.94;4991913;28;20409;-81
2022/10/27 00:18:11;;;;;;;5.68;2.17;;;14.60;99.90;;;-144.05;73.49;125687.94;4992227;28;20041;-82
2022/10/27 00:20:37;;;;;;;3.83;1.52;;;14.60;99.90;;;-144.05;74.02;125687.94;4992763;28;20038;-82
2022/10/27 00:23:03;;;;;;;6.60;2.05;;;14.50;99.90;;;-144.05;74.01;125687.94;4992725;28;20493;-82
2022/10/27 00:25:29;;;;;;;7.70;1.92;;;14.60;99.90;;;-144.05;73.48;125687.94;4993377;28;20037;-83
2022/10/27 00:27:55;;;;;;;6.18;2.22;;;14.60;99.90;;;-144.05;73.29;125687.94;5010521;28;20046;-83
2022/10/27 00:30:21;;;;;;;4.68;1.67;;;14.60;99.90;;;-144.05;73.00;125687.94;5010378;28;20035;-83
2022/10/27 00:32:47;;;;;;;8.25;1.98;;;14.40;99.90;;;-144.05;73.08;125687.94;4994928;28;20053;-84
2022/10/27 00:35:12;;;;;;;4.15;1.75;;;14.30;99.90;;;-144.05;74.21;125687.94;5010866;28;20026;-84
2022/10/27 00:37:38;;;;;;;4.97;1.98;;;14.20;99.90;;;-144.05;73.97;125687.94;5010868;28;20022;-82
2022/10/27 00:40:05;;;;;;;4.65;1.90;;;14.20;99.90;;;-144.05;73.86;125687.94;5010862;28;20026;-81
2022/10/27 00:42:31;;;;;;;4.55;1.90;;;14.00;99.90;;;-144.05;73.97;125687.94;5011049;28;20026;-82
2022/10/27 00:44:57;;;;;;;4.07;1.95;;;13.90;99.90;;;-144.05;74.20;125687.94;5009535;28;20055;-82
2022/10/27 00:47:34;;;;;;;5.72;2.20;;;13.70;99.90;;;-144.05;76.01;125687.94;5003531;28;20033;-81
2022/10/27 00:50:21;;;;;;;6.90;2.15;;;13.60;99.90;;;-144.05;77.02;125687.94;4985947;28;20035;-80
2022/10/27 00:52:57;;;;;;;6.50;2.05;;;13.70;99.90;;;-144.05;76.51;125687.94;5002459;28;20061;-83
2022/10/27 00:55:32;;;;;;;;;;;13.80;99.90;;;-144.05;76.63;125687.94;5008710;28;20096;-82
2022/10/27 00:58:05;;;;;;;9.40;2.50;;;13.90;99.90;;;-144.05;76.04;125687.94;5006674;28;19937;-81
2022/10/27 01:00:37;;;;;;;5.95;2.00;;;13.90;99.90;;;-144.05;75.79;125687.94;5005465;28;20026;-80
2022/10/27 01:03:07;;;;;;;6.80;2.00;;;13.90;99.90;;;-144.05;76.22;125687.94;4991941;28;20022;-84
2022/10/27 01:05:35;;;;;;;6.85;2.10;;;13.80;99.90;;;-144.05;76.78;125687.94;4993393;28;20053;-81
2022/10/27 01:08:06;;;;;;;7.53;2.13;;;13.80;99.90;;;-144.05;77.14;125687.94;4994160;28;20049;-81
2022/10/27 01:10:32;;;;;;;3.25;1.90;;;13.90;99.90;;;-144.05;77.18;125687.94;4995599;28;20428;-81
2022/10/27 01:13:00;;;;;;;4.85;1.85;;;13.90;99.90;;;-144.05;76.52;125687.94;4982558;28;20093;-83
2022/10/27 01:16:37;;;;;;;8.40;2.45;;;13.90;99.90;;;-144.05;76.53;125687.94;4981916;28;20402;-81
2022/10/27 01:19:33;;;;;;;4.05;1.95;;;13.90;99.90;;;-144.05;75.94;125687.94;4991108;28;20457;-80
2022/10/27 01:22:32;;;;;;;6.63;2.10;;;13.90;99.90;;;-144.05;77.09;125687.94;4998056;28;20034;-81
2022/10/27 01:25:57;;;;;;;6.95;2.20;;;13.90;99.90;;;-144.05;77.01;125687.94;4998247;28;20129;-81
2022/10/27 01:29:28;;;;;;;5.13;2.35;;;13.90;99.90;;;-144.05;76.44;125687.94;4998178;28;20031;-81
2022/10/27 01:32:27;;;;;;;8.48;2.22;;;14.00;99.90;;;-144.05;76.28;125687.94;4999685;28;20034;-80
2022/10/27 01:35:48;;;;;;;5.45;1.83;;;14.00;99.90;;;-144.05;76.23;125687.94;4982034;28;20026;-82
2022/10/27 01:38:39;;;;;;;7.28;2.30;;;14.00;99.90;;;-144.05;76.54;125687.94;4998556;28;20026;-82
2022/10/27 01:41:35;;;;;;;5.95;2.38;;;14.00;99.90;;;-144.05;76.22;125687.94;4998027;28;20030;-81
2022/10/27 01:44:16;;;;;;;8.32;2.63;;;13.90;99.90;;;-144.05;76.67;125687.94;4999957;28;20038;-82
2022/10/27 01:46:43;;;;;;;7.82;2.17;;;14.00;99.90;;;-144.05;76.62;125687.94;4983392;28;20030;-81
2022/10/27 01:49:09;;;;;;;5.60;2.00;;;14.00;99.90;;;-144.05;76.26;125687.94;4982122;28;20077;-82
2022/10/27 01:51:36;;;;;;;5.57;1.75;;;14.00;99.90;;;-144.05;76.54;125687.94;4982112;28;20378;-82
2022/10/27 01:54:05;;;;;;;5.38;2.30;;;14.00;99.90;;;-144.05;76.44;125687.94;4998835;28;20083;-83
2022/10/27 01:57:35;;;;;;;10.63;2.40;;;14.00;99.90;;;-144.05;76.61;125687.94;5000027;28;20056;-80
2022/10/27 02:00:08;;;;;;;9.32;2.45;;;14.00;99.90;;;-144.05;77.72;125687.94;4958296;28;20175;-83
2022/10/27 02:03:13;;;;;;;5.43;2.40;;;14.10;99.90;;;-144.05;77.11;125687.94;4943556;29;20430;-82
2022/10/27 02:06:07;;;;;;;5.03;2.25;;;14.10;99.90;;;-144.05;76.47;125687.94;4983165;28;20046;-82
2022/10/27 02:09:23;;;;;;;7.95;2.40;;;14.10;99.90;;;-144.05;76.71;125687.94;5004653;28;20489;-83
2022/10/27 02:11:54;;;;;;;7.18;2.50;;;14.10;99.90;;;-144.05;77.31;125687.94;5005518;28;20574;-80
2022/10/27 02:14:21;;;;;;;7.07;2.20;;;14.10;99.90;;;-144.05;77.23;125687.94;4986770;28;20034;-83
2022/10/27 02:16:54;;;;;;;5.38;2.08;;;14.20;99.90;;;-144.05;76.76;125687.94;5001875;28;20037;-82
2022/10/27 02:19:37;;;;;;;7.65;2.30;;;14.20;99.90;;;-144.05;77.08;125687.94;4985910;28;20108;-81
2022/10/27 02:22:06;;;;;;;7.05;2.03;;;14.20;99.90;;;-144.05;76.92;125687.94;5001734;28;20063;-81
2022/10/27 02:24:32;;;;;;;5.03;1.98;;;14.20;99.90;;;-144.05;76.70;125687.94;4984435;28;20038;-81
2022/10/27 02:27:11;;;;;;;7.13;1.85;;;14.20;99.90;;;-144.05;76.56;125687.94;5002952;28;20057;-81
2022/10/27 02:29:48;;;;;;;5.45;2.58;;;14.10;99.90;;;-144.05;77.24;125687.94;5001703;28;20125;-80
2022/10/27 02:32:22;;;;;;;6.70;2.47;;;14.10;99.90;;;-144.05;76.97;125687.94;4984707;28;20097;-81
2022/10/27 02:34:51;;;;;;;7.85;2.33;;;14.10;99.90;;;-144.05;77.54;125687.94;4985040;28;20389;-81
2022/10/27 02:37:40;;;;;;;8.73;2.22;;;14.10;99.90;;;-144.05;76.93;125687.94;4999963;28;20439;-81
2022/10/27 02:40:09;;;;;;;5.88;2.22;;;14.10;99.90;;;-144.05;76.85;125687.94;5003268;28;20034;-81
2022/10/27 02:42:35;;;;;;;5.18;2.03;;;14.10;99.90;;;-144.05;76.69;125687.94;5001194;28;20030;-81
2022/10/27 02:45:00;;;;;;;9.27;1.90;;;14.10;99.90;;;-144.05;76.47;125687.94;5000103;28;20482;-82
2022/10/27 02:47:26;;;;;;;5.45;2.28;;;14.10;99.90;;;-144.05;76.59;125687.94;5001736;28;20026;-81
2022/10/27 02:49:52;;;;;;;6.57;2.10;;;14.20;99.90;;;-144.05;76.43;125687.94;4999803;28;20034;-83
2022/10/27 02:52:18;;;;;;;7.40;2.47;;;14.10;99.90;;;-144.05;76.91;125687.94;4984889;28;20137;-83
2022/10/27 02:54:47;;;;;;;11.20;2.10;;;14.10;99.90;;;-144.05;76.64;125687.94;4998932;28;20049;-82
2022/10/27 02:57:18;;;;;;;4.63;1.95;;;14.20;99.90;;;-144.05;76.44;125687.94;4984978;28;20401;-81
2022/10/27 02:59:44;;;;;;;12.90;1.92;;;14.10;99.90;;;-144.05;76.56;125687.94;4983894;28;20034;-81
2022/10/27 03:02:11;;;;;;;6.32;1.95;;;14.10;99.90;;;-144.05;76.44;125687.94;4984022;28;20535;-81
2022/10/27 03:04:37;;;;;;;5.45;1.92;;;14.00;99.90;;;-144.05;76.76;125687.94;5000757;28;20034;-82
2022/10/27 03:07:04;;;;;;;11.10;2.20;;;13.90;99.90;;;-144.05;77.48;125687.94;5001247;28;20045;-80
2022/10/27 03:09:30;;;;;;;6.07;2.45;;;14.00;99.90;;;-144.05;77.73;125687.94;5000677;28;20141;-81
2022/10/27 03:11:55;;;;;;;4.78;1.48;;;14.00;99.90;;;-144.05;77.61;125687.94;5000123;28;20058;-82
2022/10/27 03:14:21;;;;;;;6.05;1.88;;;14.00;99.90;;;-144.05;77.24;125687.94;4983642;28;20031;-83
2022/10/27 03:16:47;;;;;;;9.30;2.17;;;13.90;99.90;;;-144.05;77.16;125687.94;4984187;28;20095;-82
2022/10/27 03:19:13;;;;;;;6.72;1.88;;;13.90;99.90;;;-144.05;77.58;125687.94;4999798;28;20296;-83
2022/10/27 03:21:39;;;;;;;6.05;1.67;;;13.90;99.90;;;-144.05;77.60;125687.94;5002531;28;20058;-82
2022/10/27 03:24:06;;;;;;;4.65;2.13;;;13.90;99.90;;;-144.05;78.30;125687.94;4984827;28;20031;-81
2022/10/27 03:26:31;;;;;;;4.90;1.98;;;13.80;99.90;;;-144.05;77.90;125687.94;4984275;28;20036;-81
2022/10/27 03:28:57;;;;;;;6.68;1.77;;;13.90;99.90;;;-144.05;77.59;125687.94;5002419;28;20183;-81
2022/10/27 03:31:23;;;;;;;8.18;2.60;;;13.80;99.90;;;-144.05;78.15;125687.94;5001062;28;20421;-81
2022/10/27 03:33:49;;;;;;;5.18;1.80;;;13.80;99.90;;;-144.05;78.28;125687.94;5005164;28;20042;-81
2022/10/27 03:36:15;;;;;;;4.78;1.45;;;13.80;99.90;;;-144.05;77.93;125687.94;5026784;23;20087;-78
2022/10/27 03:38:41;;;;;;;6.30;1.67;;;13.80;99.90;;;-144.05;77.83;125687.94;5011488;28;20046;-79
2022/10/27 03:41:07;;;;;;;9.02;1.88;;;13.90;99.90;;;-144.05;77.19;125687.94;5013733;28;20427;-76
2022/10/27 03:43:32;;;;;;;7.18;1.80;;;13.90;99.90;;;-144.05;77.24;125687.94;5013891;28;20117;-78
2022/10/27 03:45:58;;;;;;;5.82;2.03;;;13.90;99.90;;;-144.05;77.43;125687.94;5013715;28;20045;-78
2022/10/27 03:48:24;;;;;;;4.22;1.50;;;14.00;99.90;;;-144.05;77.40;125687.94;4995541;28;20030;-78
2022/10/27 03:50:50;;;;;;;4.03;1.75;;;13.90;99.90;;;-144.05;77.31;125687.94;5013061;28;20062;-78
2022/10/27 03:53:18;;;;;;;4.13;1.67;;;13.90;99.90;;;-144.05;77.39;125687.94;4995417;28;20069;-79
2022/10/27 03:55:47;;;;;;;8.05;1.58;;;13.90;99.90;;;-144.05;77.18;125687.94;5012794;28;20087;-78
2022/10/27 03:58:16;;;;;;;5.55;1.38;;;13.90;99.90;;;-144.05;77.16;125687.94;5011181;28;20022;-77
2022/10/27 04:00:42;;;;;;;7.95;1.42;;;13.90;99.90;;;-144.05;76.97;125687.94;5011102;28;20037;-77
2022/10/27 04:03:08;;;;;;;6.93;1.75;;;13.80;99.90;;;-144.05;77.71;125687.94;5012506;28;20113;-80
2022/10/27 04:05:34;;;;;;;3.75;1.35;;;13.90;99.90;;;-144.05;77.54;125687.94;5011133;28;20046;-79
2022/10/27 04:08:00;;;;;;;9.48;1.95;;;13.80;99.90;;;-144.05;77.68;125687.94;5012660;28;20038;-77
2022/10/27 04:10:26;;;;;;;7.57;2.10;;;13.80;99.90;;;-144.05;77.48;125687.94;5013033;28;20404;-79
2022/10/27 04:12:57;;;;;;;3.85;1.60;;;13.80;99.90;;;-144.05;77.36;125687.94;5014654;28;20168;-79
2022/10/27 04:15:26;;;;;;;8.35;1.98;;;13.80;99.90;;;-144.05;77.14;125687.94;5018809;28;20072;-77
2022/10/27 04:17:55;;;;;;;4.13;1.85;;;13.70;99.90;;;-144.05;76.94;125687.94;5016152;28;20470;-77
2022/10/27 04:20:22;;;;;;;8.73;1.80;;;13.60;99.90;;;-144.05;77.42;125687.94;5021302;28;20041;-81
2022/10/27 04:22:48;;;;;;;10.00;1.67;;;13.60;99.90;;;-144.05;77.64;125687.94;5002096;28;20037;-79
2022/10/27 04:25:14;;;;;;;6.90;1.90;;;13.70;99.90;;;-144.05;77.76;125687.94;4999615;28;20458;-80
2022/10/27 04:27:40;;;;;;;3.55;1.52;;;13.70;99.90;;;-144.05;77.36;125687.94;5012736;28;20084;-77
2022/10/27 04:30:06;;;;;;;4.38;1.90;;;13.70;99.90;;;-144.05;77.43;125687.94;5016144;28;20033;-80
2022/10/27 04:32:34;;;;;;;5.38;1.80;;;13.70;99.90;;;-144.05;77.79;125687.94;5016689;28;20030;-77
2022/10/27 04:34:59;;;;;;;4.18;1.42;;;13.80;99.90;;;-144.05;77.36;125687.94;5014298;28;20435;-77
2022/10/27 04:37:25;;;;;;;5.78;2.03;;;13.70;99.90;;;-144.05;77.38;125687.94;4996626;28;20034;-79
2022/10/27 04:39:51;;;;;;;6.50;2.08;;;13.70;99.90;;;-144.05;78.01;125687.94;5013044;28;20026;-80
2022/10/27 04:42:17;;;;;;;5.85;1.42;;;13.70;99.90;;;-144.05;77.73;125687.94;5012988;28;20029;-79
2022/10/27 04:44:43;;;;;;;3.45;1.40;;;13.60;99.90;;;-144.05;77.75;125687.94;5013362;28;20034;-79
2022/10/27 04:47:08;;;;;;;8.27;1.80;;;13.70;99.90;;;-144.05;77.72;125687.94;5016111;28;20026;-76
2022/10/27 04:49:34;;;;;;;10.00;2.15;;;13.70;99.90;;;-144.05;77.38;125687.94;5016986;28;20037;-80
2022/10/27 04:52:00;;;;;;;8.55;1.90;;;13.70;99.90;;;-144.05;77.19;125687.94;5016359;28;20524;-79
2022/10/27 04:54:27;;;;;;;4.55;1.92;;;13.70;99.90;;;-144.05;77.02;125687.94;5016286;28;20022;-80
2022/10/27 04:56:53;;;;;;;4.10;1.65;;;13.80;99.90;;;-144.05;76.58;125687.94;5016779;28;20128;-80
2022/10/27 04:59:19;;;;;;;6.20;1.73;;;13.80;99.90;;;-144.05;76.62;125687.94;5015882;28;20033;-78
2022/10/27 05:01:45;;;;;;;5.63;1.77;;;13.70;99.90;;;-144.05;76.46;125687.94;5015738;28;20034;-79
2022/10/27 05:04:11;;;;;;;8.23;2.13;;;13.80;99.90;;;-144.05;76.82;125687.94;5023516;28;20022;-77
2022/10/27 05:06:37;;;;;;;5.35;2.17;;;13.80;99.90;;;-144.05;76.40;125687.94;5018653;28;20078;-79
2022/10/27 05:09:03;;;;;;;8.13;2.60;;;13.80;99.90;;;-144.05;76.49;125687.94;5016311;28;20478;-79
2022/10/27 05:11:29;;;;;;;5.03;2.30;;;13.80;99.90;;;-144.05;76.40;125687.94;5017680;28;20425;-77
2022/10/27 05:13:54;;;;;;;8.70;2.35;;;13.70;99.90;;;-144.05;76.27;125687.94;5017051;28;20030;-78
2022/10/27 05:16:20;;;;;;;5.00;1.90;;;13.70;99.90;;;-144.05;76.88;125687.94;5015368;28;20132;-78
2022/10/27 05:18:46;;;;;;;6.30;2.22;;;13.60;99.90;;;-144.05;76.61;125687.94;5016875;28;20066;-78
2022/10/27 05:21:13;;;;;;;7.63;2.40;;;13.60;99.90;;;-144.05;76.86;125687.94;5016921;28;20030;-77
2022/10/27 05:23:39;;;;;;;8.15;4.40;;;13.60;99.90;;;-144.05;77.14;125687.94;5015368;28;20045;-77
2022/10/27 05:26:05;;;;;;;8.50;3.30;;;13.60;99.90;;;-144.05;76.86;125687.94;5015808;28;20033;-77
2022/10/27 05:28:31;;;;;;;12.15;3.42;;;13.60;99.90;;;-144.05;76.90;125687.94;4997492;28;20120;-77
2022/10/27 05:30:59;;;;;;;10.23;3.17;;;13.60;99.90;;;-144.05;76.49;125687.94;5015714;28;20467;-80
2022/10/27 05:33:26;;;;;;;5.38;1.92;;;13.50;99.90;;;-144.05;76.50;125687.94;4997974;28;20513;-78
2022/10/27 05:35:54;;;;;;;8.05;2.55;;;13.50;99.90;;;-144.05;76.94;125687.94;4998089;28;20046;-78
2022/10/27 05:38:20;;;;;;;5.22;2.00;;;13.40;99.90;;;-144.05;76.84;125687.94;5015284;28;20547;-79
2022/10/27 05:40:46;;;;;;;8.65;2.10;;;13.40;99.90;;;-144.05;77.28;125687.94;4999911;28;20121;-83
2022/10/27 05:43:12;;;;;;;6.82;2.13;;;13.50;99.90;;;-144.05;76.97;125687.94;5020617;28;20065;-82
2022/10/27 05:45:38;;;;;;;5.30;2.10;;;13.40;99.90;;;-144.05;76.69;125687.94;5002242;28;20080;-80
2022/10/27 05:48:09;;;;;;;7.22;2.45;;;13.30;99.90;;;-144.05;77.34;125687.94;5019026;28;20393;-81
2022/10/27 05:50:35;;;;;;;4.93;2.58;;;13.30;99.90;;;-144.05;77.59;125687.94;5018443;28;20034;-81
2022/10/27 05:53:02;;;;;;;4.95;2.10;;;13.40;99.90;;;-144.05;77.38;125687.94;5018723;28;20038;-82
2022/10/27 05:55:28;;;;;;;6.15;2.13;;;13.40;99.90;;;-144.05;76.65;125687.94;5017754;28;20104;-80
2022/10/27 05:58:01;;;;;;;7.47;2.33;;;13.30;99.90;;;-144.05;76.74;125687.94;5016468;28;20430;-80
2022/10/27 06:00:36;;;;;;;6.65;1.92;;;13.20;99.90;;;-144.05;77.58;125687.94;5015565;28;20075;-79
2022/10/27 06:03:07;;;;;;;12.02;2.00;;;13.20;99.90;;;-144.05;78.13;125687.94;5017069;28;20501;-77
2022/10/27 06:05:36;;;;;;;11.10;2.17;;;13.10;99.90;;;-144.05;78.25;125687.94;5015126;28;20053;-79
2022/10/27 06:08:02;;;;;;;6.28;2.53;;;13.20;99.90;;;-144.05;78.01;125687.94;5015216;28;20409;-79
2022/10/27 06:10:28;;;;;;;7.95;2.53;;;13.20;99.90;;;-144.05;78.02;125687.94;5017104;28;20030;-78
2022/10/27 06:13:05;;;;;;;6.85;2.58;;;13.20;99.90;;;-144.05;77.61;125687.94;5013765;28;20124;-78
2022/10/27 06:15:33;;;;;;;8.45;2.30;;;13.20;99.90;;;-144.05;77.47;125687.94;5016173;28;20169;-79
2022/10/27 06:17:59;;;;;;;6.75;2.78;;;13.20;99.90;;;-144.05;77.32;125687.94;5015778;28;20045;-81
2022/10/27 06:20:25;;;;;;;6.55;2.42;;;13.20;99.90;;;-144.05;77.33;125687.94;5015369;28;20030;-78
2022/10/27 06:22:51;;;;;;;7.60;2.70;;;13.10;99.90;;;-144.05;77.28;125687.94;5015267;28;20025;-77
2022/10/27 06:25:18;;;;;;;5.43;2.17;;;13.10;99.90;;;-144.05;77.11;125687.94;5015663;28;20508;-78
2022/10/27 06:27:44;;;;;;;10.50;3.08;;;13.00;99.90;;;-144.05;77.09;125687.94;5014985;28;20092;-78
2022/10/27 06:30:11;;;;;;;14.05;3.70;;;12.80;99.90;;;-144.05;77.74;125687.94;4997852;28;20083;-76
2022/10/27 06:32:41;;;;;;;9.05;3.03;;;12.80;99.90;;;-144.05;77.51;125687.94;5013507;28;20370;-80
2022/10/27 06:35:09;;;;;;;7.18;2.70;;;12.80;99.90;;;-144.05;77.71;125687.94;5014833;28;20073;-78
2022/10/27 06:37:45;;;;;;;9.35;2.50;;;12.80;99.90;;;-144.05;77.32;125687.94;5013433;28;20038;-80
2022/10/27 06:40:17;;;;;;;;;;;12.70;99.90;;;-144.05;76.41;125687.94;5015199;28;20025;-79
2022/10/27 06:42:46;;;;;;;5.75;2.10;;;12.50;99.90;;;-144.05;76.13;125687.94;5015143;28;19909;-76
2022/10/27 06:45:12;;;;;;;6.30;2.70;;;12.40;99.90;;;-144.05;76.19;125687.94;4997044;28;20030;-78
2022/10/27 06:47:38;;;;;;;9.00;2.67;;;12.20;99.90;;;-144.05;76.19;125687.94;5013565;28;20030;-78
2022/10/27 06:50:05;;;;;;;7.25;2.63;;;12.10;99.90;;;-144.05;76.51;125687.94;5015206;28;20048;-77
2022/10/27 06:52:36;;;;;;;7.75;2.75;;;12.00;99.90;;;-144.05;76.78;125687.94;5015167;28;20068;-79
2022/10/27 06:55:03;;;;;;;7.18;2.80;;;11.90;99.90;;;-144.05;77.15;125687.94;5014910;28;20057;-79
2022/10/27 06:57:37;;;;;;;5.72;2.50;;;11.80;99.90;;;-144.05;77.24;125687.94;5015957;28;20462;-78
2022/10/27 07:00:04;;;;;;;6.43;2.63;;;11.80;99.90;;;-144.05;77.40;125687.94;5015312;28;20107;-80
2022/10/27 07:02:30;;;;;;;8.88;2.72;;;11.80;99.90;;;-144.05;77.43;125687.94;4997413;28;20489;-82
2022/10/27 07:04:55;;;;;;;7.13;2.72;;;11.80;99.90;;;-144.05;77.53;125687.94;5018165;28;20046;-80
2022/10/27 07:07:21;;;;;;;6.20;3.00;;;11.90;99.90;;;-144.05;77.34;125687.94;5014867;28;20033;-79
2022/10/27 07:09:47;;;;;;;4.03;2.38;;;12.00;99.90;;;-144.05;77.12;125687.94;5013007;28;20057;-78
2022/10/27 07:12:13;;;;;;;5.88;2.40;;;12.10;99.90;;;-144.05;77.09;125687.94;5014753;28;20022;-78
2022/10/27 07:14:39;;;;;;;4.88;2.30;;;12.20;99.90;;;-144.05;77.01;125687.94;5015470;28;20516;-79
2022/10/27 07:17:04;;;;;;;3.75;2.40;;;12.30;99.90;;;-144.05;76.61;125687.94;5015916;28;20417;-78
2022/10/27 07:19:30;;;;;;;9.77;1.92;;;12.40;99.90;;;-144.05;76.33;125687.94;5017020;28;20061;-81
2022/10/27 07:21:56;;;;;;;6.15;2.55;;;12.60;99.90;;;-144.05;75.70;125687.94;5032965;28;20038;-78
2022/10/27 07:24:22;;;;;;;9.50;2.42;;;12.80;99.90;;;-144.05;75.54;125687.94;5036765;28;20030;-77
2022/10/27 07:26:48;;;;;;;5.88;2.30;;;13.00;99.90;;;-144.05;75.63;125687.94;5036766;28;20034;-78
2022/10/27 07:29:14;;;;;;;11.02;2.63;;;13.10;99.90;;;-144.05;75.42;125687.94;5036632;28;20025;-76
2022/10/27 07:31:46;;;;;;;6.90;2.25;;;13.30;99.90;;;-144.05;74.98;125687.94;5021351;28;20527;-77
2022/10/27 07:34:13;;;;;;;10.05;2.03;;;13.60;99.90;;;-144.05;73.87;125687.94;5015227;28;20109;-78
2022/10/27 07:36:39;;;;;;;5.78;1.90;;;13.90;99.90;;;-144.05;72.54;125687.94;5016412;28;20025;-79
2022/10/27 07:39:05;;;;;;;3.10;1.85;;;14.30;99.90;;;-144.05;70.93;125687.94;5013622;28;20504;-78
2022/10/27 07:41:31;;;;;;;4.20;1.85;;;14.70;99.90;;;-144.05;69.97;125687.94;5013661;28;20026;-78
2022/10/27 07:43:57;;;;;;;4.13;2.08;;;15.10;99.90;;;-144.05;68.18;125687.94;5011927;28;20030;-79
2022/10/27 07:46:23;;;;;;;4.85;2.03;;;15.40;99.90;;;-144.05;66.70;125687.94;5014027;28;20026;-79
2022/10/27 07:48:49;;;;;;;4.53;1.30;;;15.80;99.90;;;-144.05;66.21;125687.94;5013994;28;20037;-78
2022/10/27 07:51:15;;;;;;;3.58;1.25;;;16.00;99.90;;;-144.05;64.65;125687.94;4996757;28;20029;-78
2022/10/27 07:53:41;;;;;;;3.20;1.23;;;16.30;99.90;;;-144.05;63.63;125687.94;5013300;28;20034;-77
2022/10/27 07:56:07;;;;;;;7.90;1.42;;;16.60;99.90;;;-144.05;62.84;125687.94;5021512;28;20024;-79
2022/10/27 07:58:33;;;;;;;5.05;1.45;;;16.90;99.90;;;-144.05;61.97;125687.94;5016462;28;20022;-77
2022/10/27 08:00:59;;;;;;;5.28;1.17;;;17.10;99.90;;;-144.05;60.86;125687.94;5015087;28;20068;-80
2022/10/27 08:03:28;;;;;;;5.53;1.13;;;17.40;99.90;;;-144.05;60.58;125687.94;5013933;28;20033;-78
2022/10/27 08:05:57;;;;;;;3.35;1.20;;;17.60;99.90;;;-144.05;59.33;125687.94;5014151;28;20026;-78
2022/10/27 08:08:22;;;;;;;6.57;1.33;;;17.80;99.90;;;-144.05;59.53;125687.94;5014267;28;20030;-79
2022/10/27 08:10:49;;;;;;;5.85;1.30;;;17.90;99.90;;;-144.05;58.47;125687.94;5012363;28;20046;-77
2022/10/27 08:13:16;;;;;;;3.70;1.20;;;18.10;99.90;;;-144.05;58.70;125687.94;4995409;28;20040;-78
2022/10/27 08:15:42;;;;;;;5.68;1.15;;;18.30;99.90;;;-144.05;57.61;125687.94;4995972;28;20056;-76
2022/10/27 08:18:10;;;;;;;4.05;1.10;;;18.40;99.90;;;-144.05;57.64;125687.94;5011817;28;20026;-78
2022/10/27 08:20:46;;;;;;;5.18;0.82;;;18.50;99.90;;;-144.05;56.76;125687.94;5014318;28;20058;-78
2022/10/27 08:23:19;;;;;;;7.00;1.20;;;18.60;99.90;;;-144.05;56.15;125687.94;5012874;28;20052;-77
2022/10/27 08:25:45;;;;;;;5.25;0.70;;;18.70;99.90;;;-144.05;56.61;125687.94;5018781;28;20034;-78
2022/10/27 08:28:13;;;;;;;5.95;0.82;;;18.80;99.90;;;-144.05;56.95;125687.94;5018308;28;20052;-81
2022/10/27 08:30:40;;;;;;;4.50;0.95;;;18.90;99.90;;;-144.05;55.61;125687.94;5000200;28;20095;-81
2022/10/27 08:33:07;;;;;;;3.30;1.30;;;18.90;99.90;;;-144.05;55.45;125687.94;5016267;28;20105;-79
2022/10/27 08:35:34;;;;;;;3.70;1.08;;;19.00;99.90;;;-144.05;55.16;125687.94;5014428;28;20052;-77
2022/10/27 08:38:04;;;;;;;4.28;1.15;;;19.10;99.90;;;-144.05;54.61;125687.94;5012058;28;20576;-78
2022/10/27 08:40:56;;;;;;;5.50;1.15;;;19.20;99.90;;;-144.05;54.22;125687.94;4994664;28;20026;-79
2022/10/27 08:44:05;;;;;;;4.43;1.00;;;19.20;99.90;;;-144.05;54.58;125687.94;5012631;28;20030;-76
2022/10/27 08:46:51;;;;;;;2.22;0.82;;;19.30;99.90;;;-144.05;54.33;125687.94;4994537;28;20061;-77
2022/10/27 08:49:50;;;;;;;6.00;0.90;;;19.40;99.90;;;-144.05;53.59;125687.94;5011996;28;20436;-80
2022/10/27 08:52:35;;;;;;;3.83;1.00;;;19.60;99.90;;;-144.05;54.11;125687.94;5013324;28;20034;-78
2022/10/27 08:55:28;;;;;;;2.08;0.82;;;19.50;99.90;;;-144.05;53.11;125687.94;5013742;28;20041;-78
2022/10/27 08:58:04;;;;;;;5.10;1.00;;;19.70;99.90;;;-144.05;53.51;125687.94;5011909;28;20026;-79
2022/10/27 09:00:55;;;;;;;6.55;1.02;;;19.90;99.90;;;-144.05;53.20;125687.94;5013259;28;20053;-79
2022/10/27 09:04:14;;;;;;;2.85;0.90;;;20.00;99.90;;;-144.05;53.15;125687.94;5012793;28;20041;-79
2022/10/27 09:07:35;;;;;;;3.58;1.10;;;20.10;99.90;;;-144.05;52.51;125687.94;4995368;28;20030;-78
2022/10/27 09:10:28;;;;;;;4.28;0.90;;;20.30;99.90;;;-144.05;51.32;125687.94;5010638;28;20030;-78
2022/10/27 09:13:40;;;;;;;4.13;0.90;;;20.40;99.90;;;-144.05;50.55;125687.94;5012400;28;20038;-79
2022/10/27 09:16:21;;;;;;;3.10;1.20;;;20.50;99.90;;;-144.05;51.39;125687.94;5012643;28;20504;-78
2022/10/27 09:18:57;;;;;;;4.57;0.98;;;20.50;99.90;;;-144.05;51.35;125687.94;5010755;28;20113;-78
2022/10/27 09:21:27;;;;;;;3.90;1.02;;;20.60;99.90;;;-144.05;50.74;125687.94;5011176;28;20030;-78
2022/10/27 09:24:11;;;;;;;1.83;0.73;;;20.60;99.90;;;-144.05;51.15;125687.94;5010924;28;20060;-77
2022/10/27 09:26:39;;;;;;;5.97;1.10;;;20.60;99.90;;;-144.05;50.88;125687.94;5012480;28;20030;-78
2022/10/27 09:29:21;;;;;;;5.95;0.98;;;20.80;99.90;;;-144.05;50.67;125687.94;5012590;28;20026;-80
2022/10/27 09:31:57;;;;;;;2.58;0.90;;;20.90;99.90;;;-144.05;49.35;125687.94;5010708;28;20026;-78
2022/10/27 09:34:39;;;;;;;4.10;1.20;;;21.00;99.90;;;-144.05;49.66;125687.94;4998198;28;20030;-78
2022/10/27 09:37:15;;;;;;;3.13;1.00;;;21.00;99.90;;;-144.05;49.27;125687.94;5031155;23;20076;-85
2022/10/27 09:39:50;;;;;;;8.15;1.40;;;21.10;99.90;;;-144.05;49.26;125687.94;5012779;28;20088;-84
2022/10/27 09:42:19;;;;;;;6.22;1.08;;;21.00;99.90;;;-144.05;49.19;125687.94;5032761;28;20076;-84
2022/10/27 09:45:02;;;;;;;2.05;0.70;;;21.20;99.90;;;-144.05;49.66;125687.94;5013858;28;20018;-84
2022/10/27 09:47:38;;;;;;;5.35;1.27;;;21.20;99.90;;;-144.05;49.23;125687.94;5030765;28;20030;-82
2022/10/27 09:50:35;;;;;;;5.95;1.35;;;21.20;99.90;;;-144.05;49.57;125687.94;5032820;28;20045;-81
2022/10/27 09:53:03;;;;;;;6.88;0.95;;;21.20;99.90;;;-144.05;48.52;125687.94;5018041;28;20064;-81
2022/10/27 09:55:52;;;;;;;6.97;0.82;;;21.20;99.90;;;-144.05;48.87;125687.94;5034835;28;20029;-80
2022/10/27 09:58:19;;;;;;;2.25;1.00;;;21.20;99.90;;;-144.05;48.69;125687.94;5027634;28;20026;-85
2022/10/27 10:00:57;;;;;;;2.15;0.63;;;21.40;99.90;;;-144.05;48.23;125687.94;5008481;28;20095;-84
2022/10/27 10:03:24;;;;;;;5.40;0.70;;;21.50;99.90;;;-144.05;48.08;125687.94;5027872;28;20041;-83
2022/10/27 10:06:22;;;;;;;5.32;1.20;;;21.60;99.90;;;-144.05;47.86;125687.94;5011084;28;20029;-86
2022/10/27 10:08:48;;;;;;;6.70;0.90;;;21.70;99.90;;;-144.05;47.25;125687.94;5027745;28;20120;-83
2022/10/27 10:11:22;;;;;;;4.47;1.08;;;21.70;99.90;;;-144.05;47.40;125687.94;5029832;28;20117;-84
2022/10/27 10:14:01;;;;;;;5.27;0.93;;;21.80;99.90;;;-144.05;47.10;125687.94;5012378;28;20073;-84
2022/10/27 10:16:29;;;;;;;2.13;0.77;;;21.90;99.90;;;-144.05;47.19;125687.94;5011400;28;20033;-84
2022/10/27 10:18:59;;;;;;;2.88;0.80;;;22.00;99.90;;;-144.05;46.86;125687.94;5012785;28;20026;-85
2022/10/27 10:21:26;;;;;;;4.97;1.10;;;22.00;99.90;;;-144.05;46.67;125687.94;5027972;28;20030;-85